Time;durP1;ratioP1;P1;durP2;ratioP2;P2;SDS_P1;SDS_P2;PMS_P1;PMS_P2;Temp;Humidity;BMP_temperature;BMP_pressure;BME280_temperature;BME280_humidity;BME280_pressure;Samples;Min_cycle;Max_cycle;Signal;HPM_P1;HPM_P2
2023/10/03 00:00:15;;;;;;;23.35;8.95;;;;;;;-145.69;58.87;52048.31;5031685;28;20208;-80
2023/10/03 00:02:43;;;;;;;24.38;8.95;;;;;;;-145.69;59.03;52026.53;5031283;28;20212;-80
2023/10/03 00:05:17;;;;;;;23.40;8.88;;;;;;;-145.69;59.40;52004.75;5031461;28;20212;-80
2023/10/03 00:07:44;;;;;;;30.42;9.48;;;;;;;-145.69;59.13;51990.91;5031038;28;20200;-80
2023/10/03 00:10:11;;;;;;;22.77;8.95;;;;;;;-145.69;59.13;52030.50;5031042;28;20550;-81
2023/10/03 00:12:37;;;;;;;26.55;10.43;;;;;;;-145.69;59.96;52040.41;5030356;28;20438;-81
2023/10/03 00:15:07;;;;;;;31.33;9.52;;;;;;;-145.69;59.13;52030.50;5030768;28;20231;-80
2023/10/03 00:17:35;;;;;;;28.23;9.68;;;;;;;-145.69;58.48;51992.88;5031595;28;20207;-80
2023/10/03 00:20:04;;;;;;;24.15;8.70;;;;;;;-145.69;59.31;52030.50;5031174;28;20211;-80
2023/10/03 00:22:32;;;;;;;25.25;8.77;;;;;;;-145.69;59.10;52024.56;5030923;28;20196;-81
2023/10/03 00:25:01;;;;;;;22.90;8.95;;;;;;;-145.69;59.09;52044.38;5030667;28;20706;-80
2023/10/03 00:27:28;;;;;;;28.45;9.25;;;;;;;-145.69;58.81;52048.31;5030789;28;20650;-80
2023/10/03 00:29:55;;;;;;;21.77;8.23;;;;;;;-145.69;58.60;52034.47;5031122;28;20249;-80
2023/10/03 00:32:21;;;;;;;27.23;9.05;;;;;;;-145.69;58.48;52008.72;5030783;28;20655;-80
2023/10/03 00:34:49;;;;;;;19.08;7.55;;;;;;;-145.69;58.48;52018.63;5030703;28;20231;-80
2023/10/03 00:37:15;;;;;;;27.35;9.05;;;;;;;-145.69;58.50;52002.78;5030199;28;20719;-80
2023/10/03 00:39:43;;;;;;;19.20;7.68;;;;;;;-145.69;58.05;52036.44;5088279;27;20552;-80
2023/10/03 00:42:11;;;;;;;24.40;8.52;;;;;;;-145.69;58.43;52032.47;5010925;28;20205;-80
2023/10/03 00:44:39;;;;;;;21.00;8.10;;;;;;;-145.69;58.10;52036.44;5011194;28;20232;-80
2023/10/03 00:47:07;;;;;;;25.95;8.65;;;;;;;-145.69;57.88;52028.53;5010909;28;20563;-80
2023/10/03 00:49:36;;;;;;;25.38;8.77;;;;;;;-145.69;59.68;52042.38;5013993;28;20282;-81
2023/10/03 00:52:05;;;;;;;22.20;7.38;;;;;;;-145.69;59.44;52016.66;5030783;28;20199;-82
2023/10/03 00:54:32;;;;;;;25.48;8.48;;;;;;;-145.69;59.96;52002.78;5030193;28;20204;-80
2023/10/03 00:57:02;;;;;;;18.15;7.47;;;;;;;-145.69;59.55;52020.59;5030413;28;20231;-81
2023/10/03 00:59:33;;;;;;;22.20;7.55;;;;;;;-145.69;59.71;52028.53;5030195;28;20549;-80
2023/10/03 01:02:06;;;;;;;22.73;8.13;;;;;;;-145.69;60.77;52032.47;5099847;27;20225;-81
2023/10/03 01:04:34;;;;;;;19.17;7.50;;;;;;;-145.69;59.63;52020.59;5067067;27;20192;-80
2023/10/03 01:07:01;;;;;;;19.10;6.72;;;;;;;-145.69;59.50;52016.66;5030344;28;20292;-81
2023/10/03 01:09:30;;;;;;;19.75;7.00;;;;;;;-145.69;58.66;52028.53;5030089;28;20206;-80
2023/10/03 01:11:57;;;;;;;18.83;7.07;;;;;;;-145.69;58.62;52048.31;5029829;28;20200;-80
2023/10/03 01:14:28;;;;;;;20.13;7.38;;;;;;;-145.69;58.63;52020.59;5029994;28;20215;-80
2023/10/03 01:16:55;;;;;;;16.17;6.60;;;;;;;-145.69;59.00;52042.38;5029930;28;20248;-80
2023/10/03 01:19:26;;;;;;;13.93;6.43;;;;;;;-145.69;58.23;52038.44;5030397;28;20239;-82
2023/10/03 01:21:52;;;;;;;16.48;5.90;;;;;;;-145.69;57.93;52064.16;5044480;27;20192;-83
2023/10/03 01:24:24;;;;;;;14.93;6.55;;;;;;;-145.69;57.80;52052.28;5029627;28;20210;-82
2023/10/03 01:26:53;;;;;;;15.75;6.18;;;;;;;-145.69;57.60;52076.03;5030279;28;20204;-83
2023/10/03 01:29:19;;;;;;;19.38;7.32;;;;;;;-145.69;58.58;52060.22;5030501;28;20619;-82
2023/10/03 01:31:48;;;;;;;17.33;6.68;;;;;;;-145.69;59.26;52056.25;5029671;28;20291;-83
2023/10/03 01:34:15;;;;;;;15.55;5.90;;;;;;;-145.69;58.46;52040.41;5030016;28;20232;-82
2023/10/03 01:36:42;;;;;;;15.65;5.78;;;;;;;-145.69;58.23;52032.47;5029615;28;20239;-83
2023/10/03 01:39:11;;;;;;;17.27;5.20;;;;;;;-145.69;56.92;52034.47;5029915;28;20222;-82
2023/10/03 01:41:40;;;;;;;18.38;5.78;;;;;;;-145.69;57.06;52056.25;5030147;28;20203;-81
2023/10/03 01:44:08;;;;;;;15.25;5.68;;;;;;;-145.69;57.45;52048.31;5029804;28;20226;-82
2023/10/03 01:46:34;;;;;;;12.50;5.30;;;;;;;-145.69;56.89;52008.72;5029972;28;20663;-82
2023/10/03 01:49:02;;;;;;;13.45;5.05;;;;;;;-145.69;57.45;52026.53;5029243;28;20532;-82
2023/10/03 01:51:28;;;;;;;14.98;5.40;;;;;;;-145.69;57.38;52026.53;5029901;28;20555;-82
2023/10/03 01:53:56;;;;;;;12.63;5.35;;;;;;;-145.69;55.76;52052.28;5029592;28;20227;-83
2023/10/03 01:56:24;;;;;;;16.35;5.55;;;;;;;-145.69;55.33;52032.47;5029823;28;20238;-83
2023/10/03 01:58:54;;;;;;;13.23;5.65;;;;;;;-145.69;54.56;52030.50;5029942;28;20233;-82
2023/10/03 02:01:23;;;;;;;17.13;5.53;;;;;;;-145.69;54.16;52014.66;5029874;28;20196;-82
2023/10/03 02:03:50;;;;;;;13.68;5.72;;;;;;;-145.69;54.54;52032.47;5030370;28;20597;-82
2023/10/03 02:06:16;;;;;;;12.80;5.22;;;;;;;-145.69;54.88;52040.41;5029745;28;20260;-82
2023/10/03 02:08:43;;;;;;;16.02;5.53;;;;;;;-145.69;54.60;52040.41;5029323;28;20707;-82
2023/10/03 02:11:11;;;;;;;20.23;5.85;;;;;;;-145.69;53.57;52048.31;5029876;28;20222;-82
2023/10/03 02:13:39;;;;;;;15.90;4.93;;;;;;;-145.69;53.73;52026.53;5029743;28;20655;-82
2023/10/03 02:16:07;;;;;;;13.85;5.50;;;;;;;-145.69;54.00;52024.56;5029346;28;20351;-82
2023/10/03 02:18:35;;;;;;;13.35;4.93;;;;;;;-145.69;54.38;52034.47;5028545;28;20673;-82
2023/10/03 02:21:02;;;;;;;12.00;5.00;;;;;;;-145.69;55.67;52016.66;5029409;28;20227;-82
2023/10/03 02:23:29;;;;;;;15.68;5.90;;;;;;;-145.69;54.53;52006.75;5029514;28;20216;-82
2023/10/03 02:25:58;;;;;;;13.10;5.22;;;;;;;-145.69;54.56;52012.69;5029158;28;20210;-82
2023/10/03 02:28:26;;;;;;;13.95;5.45;;;;;;;-145.69;54.36;52040.41;5029308;28;20212;-82
2023/10/03 02:30:55;;;;;;;14.70;5.07;;;;;;;-145.69;53.62;52054.25;5029286;28;20200;-82
2023/10/03 02:33:24;;;;;;;16.80;5.50;;;;;;;-145.69;52.74;52028.53;5029044;28;20671;-81
2023/10/03 02:35:51;;;;;;;13.32;5.25;;;;;;;-145.69;51.75;52016.66;5031651;28;20243;-82
2023/10/03 02:38:25;;;;;;;12.38;4.95;;;;;;;-145.69;52.74;52012.69;5032562;27;20208;-82
2023/10/03 02:40:52;;;;;;;11.43;5.13;;;;;;;-145.69;53.47;51988.91;5033029;28;20207;-82
2023/10/03 02:43:19;;;;;;;11.95;5.10;;;;;;;-145.69;53.45;52036.44;5075470;27;20193;-82
2023/10/03 02:45:45;;;;;;;14.13;5.20;;;;;;;-145.69;52.84;52010.69;5137004;27;20208;-81
2023/10/03 02:48:15;;;;;;;12.13;4.68;;;;;;;-145.69;52.34;52012.69;5084330;27;20193;-82
2023/10/03 02:50:44;;;;;;;14.38;4.93;;;;;;;-145.69;52.62;52014.66;5032610;28;20245;-81
2023/10/03 02:53:12;;;;;;;12.20;5.30;;;;;;;-145.69;52.92;52008.72;5032759;28;20208;-82
2023/10/03 02:55:41;;;;;;;13.05;5.30;;;;;;;-145.69;52.96;52022.59;5032462;28;20226;-82
2023/10/03 02:58:09;;;;;;;12.13;4.88;;;;;;;-145.69;52.52;52036.44;5118484;27;20279;-83
2023/10/03 03:00:37;;;;;;;16.42;5.38;;;;;;;-145.69;51.86;52004.75;5137214;27;20192;-82
2023/10/03 03:03:06;;;;;;;15.18;5.32;;;;;;;-145.69;51.45;51984.97;5136719;27;20201;-83
2023/10/03 03:05:36;;;;;;;12.80;4.70;;;;;;;-145.69;51.15;51981.00;5100726;27;20203;-82
2023/10/03 03:08:11;;;;;;;12.90;5.40;;;;;;;-145.69;50.29;52026.53;5032421;28;20208;-82
2023/10/03 03:10:38;;;;;;;14.52;5.28;;;;;;;-145.69;50.09;52020.59;5032136;28;20212;-82
2023/10/03 03:13:07;;;;;;;11.30;4.60;;;;;;;-145.69;49.51;51996.84;5032477;28;20204;-82
2023/10/03 03:15:37;;;;;;;15.52;4.68;;;;;;;-145.69;49.04;52012.69;5032057;28;20257;-82
2023/10/03 03:18:04;;;;;;;12.93;4.68;;;;;;;-145.69;48.53;51992.88;5031701;28;20280;-81
2023/10/03 03:20:36;;;;;;;10.88;4.80;;;;;;;-145.69;48.72;52012.69;5032153;28;20207;-82
2023/10/03 03:23:10;;;;;;;9.73;4.50;;;;;;;-145.69;46.61;52040.41;5031826;28;20196;-82
2023/10/03 03:25:38;;;;;;;12.10;4.57;;;;;;;-145.69;46.80;52012.69;5031726;28;20216;-82
2023/10/03 03:28:12;;;;;;;14.80;4.18;;;;;;;-145.69;46.63;51979.03;5032230;28;20208;-82
2023/10/03 03:30:39;;;;;;;12.25;4.95;;;;;;;-145.69;46.57;51988.91;5046303;27;20200;-82
2023/10/03 03:33:11;;;;;;;10.05;4.55;;;;;;;-145.69;46.53;52002.78;5031951;28;20196;-82
2023/10/03 03:35:41;;;;;;;11.98;4.90;;;;;;;-145.69;46.62;52000.81;5031692;28;20236;-82
2023/10/03 03:38:15;;;;;;;12.52;4.88;;;;;;;-145.69;46.59;52016.66;5031849;28;20201;-82
2023/10/03 03:40:45;;;;;;;11.00;4.53;;;;;;;-145.69;46.71;51988.91;5031739;28;20204;-82
2023/10/03 03:43:13;;;;;;;13.45;4.72;;;;;;;-145.69;46.87;51996.84;5031083;28;20257;-83
2023/10/03 03:45:40;;;;;;;14.68;4.72;;;;;;;-145.69;47.12;51979.03;5031442;28;20232;-81
2023/10/03 03:48:07;;;;;;;10.85;4.60;;;;;;;-145.69;47.26;51969.13;5031517;28;20204;-82
2023/10/03 03:50:34;;;;;;;12.60;4.78;;;;;;;-145.69;47.26;51973.06;5031556;28;20677;-82
2023/10/03 03:53:02;;;;;;;13.35;4.82;;;;;;;-145.69;46.21;51992.88;5031713;28;20658;-82
2023/10/03 03:55:31;;;;;;;12.63;4.72;;;;;;;-145.69;45.57;51982.97;5031293;28;20197;-82
2023/10/03 03:57:59;;;;;;;10.75;4.30;;;;;;;-145.69;45.50;51984.97;5031071;28;20235;-82
2023/10/03 04:00:28;;;;;;;11.77;4.32;;;;;;;-145.69;44.57;51973.06;5031661;28;20206;-82
2023/10/03 04:02:57;;;;;;;14.48;4.60;;;;;;;-145.69;44.46;51965.16;5031401;28;20242;-82
2023/10/03 04:05:25;;;;;;;14.05;4.45;;;;;;;-145.69;44.00;52000.81;5031146;28;20971;-82
2023/10/03 04:07:51;;;;;;;11.43;4.30;;;;;;;-145.69;44.30;51992.88;5031638;28;20294;-82
2023/10/03 04:10:18;;;;;;;13.20;4.47;;;;;;;-145.69;43.69;51961.19;5031711;28;20200;-82
2023/10/03 04:12:48;;;;;;;11.30;4.57;;;;;;;-145.69;43.94;51973.06;5030493;28;20677;-82
2023/10/03 04:15:15;;;;;;;10.57;4.20;;;;;;;-145.69;44.34;51973.06;5031011;28;20208;-82
2023/10/03 04:17:42;;;;;;;12.40;4.63;;;;;;;-145.69;44.27;51951.28;5031113;28;20696;-82
2023/10/03 04:20:13;;;;;;;13.73;4.40;;;;;;;-145.69;43.99;51961.19;5031256;28;20200;-82
2023/10/03 04:22:41;;;;;;;11.30;4.55;;;;;;;-145.69;44.44;51990.91;5031080;28;20265;-82
2023/10/03 04:25:19;;;;;;;9.88;4.30;;;;;;;-145.69;44.55;51979.03;5031066;28;20659;-83
2023/10/03 04:27:48;;;;;;;10.30;4.40;;;;;;;-145.69;44.29;52000.81;5030637;28;20196;-81
2023/10/03 04:30:15;;;;;;;9.90;4.45;;;;;;;-145.69;44.19;51973.06;5030837;28;20200;-82
2023/10/03 04:32:42;;;;;;;9.35;4.20;;;;;;;-145.69;43.86;51982.97;5031128;28;20207;-82
2023/10/03 04:35:13;;;;;;;13.07;4.30;;;;;;;-145.69;44.15;52004.75;5030746;28;20256;-82
2023/10/03 04:37:42;;;;;;;12.20;4.20;;;;;;;-145.69;43.87;51990.91;5030896;28;20239;-82
2023/10/03 04:40:13;;;;;;;10.77;4.20;;;;;;;-145.69;43.74;51994.88;5030839;28;20200;-83
2023/10/03 04:42:40;;;;;;;12.27;4.88;;;;;;;-145.69;44.09;51996.84;5031126;28;20200;-82
2023/10/03 04:45:10;;;;;;;12.23;4.43;;;;;;;-145.69;44.02;51961.19;5047377;27;20203;-82
2023/10/03 04:47:38;;;;;;;8.60;3.97;;;;;;;-145.69;43.66;51965.16;5030880;28;20288;-82
2023/10/03 04:50:05;;;;;;;14.68;4.60;;;;;;;-145.69;44.19;51977.03;5030187;28;20558;-82
2023/10/03 04:52:32;;;;;;;10.32;4.30;;;;;;;-145.69;44.48;51981.00;5029036;28;20207;-82
2023/10/03 04:54:58;;;;;;;13.63;4.47;;;;;;;-145.69;43.64;51965.16;5095563;27;20196;-82
2023/10/03 04:57:27;;;;;;;12.15;4.88;;;;;;;-145.69;44.09;51988.91;5029347;28;20219;-82
2023/10/03 04:59:53;;;;;;;11.27;3.88;;;;;;;-145.69;44.27;51977.03;5030568;28;20651;-82
2023/10/03 05:02:21;;;;;;;10.15;4.10;;;;;;;-145.69;44.50;51961.19;5108982;27;20201;-82
2023/10/03 05:04:49;;;;;;;11.15;4.35;;;;;;;-145.69;45.07;51981.00;5134455;27;20199;-82
2023/10/03 05:07:15;;;;;;;9.68;3.97;;;;;;;-145.69;45.75;51969.13;5134673;27;20200;-82
2023/10/03 05:09:42;;;;;;;9.10;4.15;;;;;;;-145.69;45.19;52012.69;5134021;27;20207;-82
2023/10/03 05:12:08;;;;;;;10.85;4.40;;;;;;;-145.69;45.29;51996.84;5081085;27;20207;-82
2023/10/03 05:14:40;;;;;;;10.63;4.03;;;;;;;-145.69;45.29;52006.75;5030710;28;20581;-83
2023/10/03 05:17:06;;;;;;;9.95;4.00;;;;;;;-145.69;45.37;51994.88;5030067;28;20238;-82
2023/10/03 05:19:36;;;;;;;8.40;3.20;;;;;;;-145.69;45.16;51981.00;5030340;28;20207;-82
2023/10/03 05:22:03;;;;;;;10.15;4.18;;;;;;;-145.69;46.41;52012.69;5044764;27;20655;-82
2023/10/03 05:24:32;;;;;;;9.32;3.80;;;;;;;-145.69;46.49;52000.81;5030508;28;20204;-82
2023/10/03 05:26:58;;;;;;;15.15;4.40;;;;;;;-145.69;47.10;52040.41;5029619;28;20227;-82
2023/10/03 05:29:26;;;;;;;9.75;4.28;;;;;;;-145.69;47.33;51998.81;5030096;28;20647;-82
2023/10/03 05:31:54;;;;;;;8.63;4.07;;;;;;;-145.69;47.70;51984.97;5030354;28;20677;-82
2023/10/03 05:34:20;;;;;;;10.30;3.88;;;;;;;-145.69;48.46;52004.75;5030266;28;20420;-82
2023/10/03 05:36:48;;;;;;;9.63;4.25;;;;;;;-145.69;48.35;52000.81;5029556;28;20271;-82
2023/10/03 05:39:15;;;;;;;10.77;4.10;;;;;;;-145.69;48.35;52028.53;5029994;28;20257;-82
2023/10/03 05:41:42;;;;;;;13.27;4.75;;;;;;;-145.69;48.08;52014.66;5030000;28;20696;-82
2023/10/03 05:44:11;;;;;;;8.80;3.90;;;;;;;-145.69;48.44;52036.44;5029968;28;20207;-82
2023/10/03 05:46:39;;;;;;;12.68;4.53;;;;;;;-145.69;48.68;52010.69;5029918;28;20277;-83
2023/10/03 05:49:05;;;;;;;9.00;4.22;;;;;;;-145.69;48.30;52038.44;5030339;28;20211;-81
2023/10/03 05:51:33;;;;;;;8.60;3.97;;;;;;;-145.69;48.59;52006.75;5029904;28;20203;-82
2023/10/03 05:54:01;;;;;;;8.88;3.78;;;;;;;-145.69;48.64;51977.03;5029747;28;20655;-83
2023/10/03 05:56:28;;;;;;;10.32;4.43;;;;;;;-145.69;48.87;52018.63;5029239;28;20283;-82
2023/10/03 05:58:54;;;;;;;9.55;4.00;;;;;;;-145.69;48.84;52038.44;5029659;28;20196;-82
2023/10/03 06:01:21;;;;;;;15.85;4.45;;;;;;;-145.69;48.37;52006.75;5029565;28;20204;-82
2023/10/03 06:03:47;;;;;;;9.35;3.88;;;;;;;-145.69;48.79;51992.88;5029431;28;20204;-82
2023/10/03 06:06:15;;;;;;;9.32;4.47;;;;;;;-145.69;49.55;52054.25;5028549;28;20446;-81
2023/10/03 06:08:41;;;;;;;10.90;4.35;;;;;;;-145.69;51.13;52032.47;5030514;28;20204;-82
2023/10/03 06:11:10;;;;;;;9.57;4.30;;;;;;;-145.69;50.25;52022.59;5033057;28;20200;-82
2023/10/03 06:13:36;;;;;;;11.68;4.38;;;;;;;-145.69;49.38;52016.66;5032731;28;20269;-81
2023/10/03 06:16:06;;;;;;;8.50;4.03;;;;;;;-145.69;49.99;52006.75;5032866;28;20223;-81
2023/10/03 06:18:33;;;;;;;9.75;4.32;;;;;;;-145.69;49.73;51981.00;5033140;28;20236;-82
2023/10/03 06:20:59;;;;;;;11.70;3.95;;;;;;;-145.69;49.10;52016.66;5033018;28;20211;-82
2023/10/03 06:23:26;;;;;;;7.78;3.72;;;;;;;-145.69;48.62;51977.03;5033061;28;20204;-82
2023/10/03 06:25:52;;;;;;;12.30;4.25;;;;;;;-145.69;49.30;51998.81;5032648;28;20733;-81
2023/10/03 06:28:21;;;;;;;13.10;4.22;;;;;;;-145.69;49.25;51984.97;5032850;28;20275;-81
2023/10/03 06:30:48;;;;;;;9.63;4.22;;;;;;;-145.69;49.15;52010.69;5032681;28;20268;-82
2023/10/03 06:33:15;;;;;;;13.75;4.65;;;;;;;-145.69;48.81;51982.97;5032277;28;20680;-82
2023/10/03 06:35:42;;;;;;;9.60;4.53;;;;;;;-145.69;49.01;52018.63;5032838;28;20272;-82
2023/10/03 06:38:08;;;;;;;10.02;4.43;;;;;;;-145.69;48.89;52008.72;5031996;28;20617;-82
2023/10/03 06:40:36;;;;;;;14.13;4.15;;;;;;;-145.69;49.27;52004.75;5032559;28;20206;-82
2023/10/03 06:43:03;;;;;;;9.88;4.00;;;;;;;-145.69;48.63;51992.88;5033049;28;20636;-82
2023/10/03 06:45:31;;;;;;;8.85;3.80;;;;;;;-145.69;49.40;52020.59;5032639;28;20222;-82
2023/10/03 06:48:02;;;;;;;13.10;4.25;;;;;;;-145.69;48.74;51977.03;5032479;28;20784;-82
2023/10/03 06:50:29;;;;;;;8.77;4.20;;;;;;;-145.69;48.49;51992.88;5032799;28;20201;-82
2023/10/03 06:52:55;;;;;;;8.02;3.88;;;;;;;-145.69;48.77;51981.00;5031963;28;20200;-82
2023/10/03 06:55:22;;;;;;;10.30;4.13;;;;;;;-145.69;48.50;51986.94;5106828;27;20203;-82
2023/10/03 06:57:48;;;;;;;8.52;3.67;;;;;;;-145.69;47.19;51971.09;5136648;27;20243;-82
2023/10/03 07:00:16;;;;;;;8.48;3.88;;;;;;;-145.69;48.21;51981.00;5136737;27;20197;-83
2023/10/03 07:02:44;;;;;;;9.07;3.67;;;;;;;-145.69;47.56;51973.06;5129522;27;20283;-82
2023/10/03 07:05:11;;;;;;;10.85;3.92;;;;;;;-145.69;47.63;51986.94;5087272;27;20241;-83
2023/10/03 07:07:39;;;;;;;9.45;4.40;;;;;;;-145.69;46.99;51969.13;5031868;28;20212;-82
2023/10/03 07:10:07;;;;;;;9.52;3.67;;;;;;;-145.69;46.84;51977.03;5032306;28;20237;-82
2023/10/03 07:12:33;;;;;;;9.38;3.80;;;;;;;-145.69;46.34;51975.06;5032451;28;20212;-82
2023/10/03 07:15:00;;;;;;;12.55;4.05;;;;;;;-145.69;46.56;51977.03;5032261;28;20200;-82
2023/10/03 07:17:26;;;;;;;7.78;3.80;;;;;;;-145.69;46.40;51965.16;5032899;28;20224;-82
2023/10/03 07:19:54;;;;;;;9.05;3.80;;;;;;;-145.69;45.42;51990.91;5033097;28;20214;-82
2023/10/03 07:22:21;;;;;;;8.20;4.10;;;;;;;-145.69;45.88;51996.84;5033144;28;20524;-82
2023/10/03 07:24:47;;;;;;;9.07;3.70;;;;;;;-145.69;46.18;51965.16;5034239;28;20657;-82
2023/10/03 07:27:15;;;;;;;14.23;4.03;;;;;;;-145.69;45.16;51953.28;5036265;27;20207;-79
2023/10/03 07:29:42;;;;;;;7.88;3.53;;;;;;;-145.69;45.32;51951.28;5013649;28;20197;-81
2023/10/03 07:32:12;;;;;;;9.65;3.92;;;;;;;-145.69;43.00;51953.28;5013174;28;20211;-82
2023/10/03 07:34:42;;;;;;;6.82;3.20;;;;;;;-145.69;43.99;51967.13;5016755;28;20193;-81
2023/10/03 07:37:10;;;;;;;6.72;3.42;;;;;;;-145.69;43.49;51939.41;5033843;28;20197;-82
2023/10/03 07:39:38;;;;;;;8.65;3.67;;;;;;;-145.69;43.21;51921.59;5033379;28;20206;-80
2023/10/03 07:42:05;;;;;;;10.50;3.80;;;;;;;-145.69;43.43;51945.34;5033904;28;20204;-79
2023/10/03 07:44:32;;;;;;;8.82;3.40;;;;;;;-145.69;43.03;51933.47;5033708;28;20256;-82
2023/10/03 07:46:58;;;;;;;8.05;3.83;;;;;;;-145.69;42.88;51951.28;5032760;28;20604;-79
2023/10/03 07:49:25;;;;;;;10.13;3.58;;;;;;;-145.69;41.10;51941.41;5034392;28;20559;-79
2023/10/03 07:51:53;;;;;;;11.30;3.55;;;;;;;-145.69;42.90;51941.41;5032873;28;20654;-80
2023/10/03 07:54:21;;;;;;;9.35;3.78;;;;;;;-145.69;43.01;51897.84;5034399;28;20200;-79
2023/10/03 07:56:48;;;;;;;10.45;4.00;;;;;;;-145.69;43.98;51913.69;5036616;28;20196;-80
2023/10/03 07:59:15;;;;;;;8.60;3.65;;;;;;;-145.69;42.42;51913.69;5036136;28;20232;-80
2023/10/03 08:01:42;;;;;;;8.10;3.53;;;;;;;-145.69;43.27;51899.81;5034013;28;20659;-81
2023/10/03 08:04:12;;;;;;;6.68;3.05;;;;;;;-145.69;42.33;51925.56;5032839;28;20196;-80
2023/10/03 08:06:40;;;;;;;7.03;2.97;;;;;;;-145.69;42.26;51893.88;5031687;28;20673;-81
2023/10/03 08:09:08;;;;;;;7.18;3.20;;;;;;;-145.69;39.83;51909.72;5031530;28;20200;-80
2023/10/03 08:11:36;;;;;;;12.00;3.58;;;;;;;-145.69;40.42;51885.94;5031889;28;20290;-81
2023/10/03 08:14:11;;;;;;;11.40;3.42;;;;;;;-145.69;39.75;51907.72;5032556;28;20204;-80
2023/10/03 08:16:40;;;;;;;8.23;3.38;;;;;;;-145.69;38.19;51929.50;5032006;28;20208;-81
2023/10/03 08:19:08;;;;;;;6.03;3.17;;;;;;;-145.69;38.76;51905.75;5031334;28;20228;-83
2023/10/03 08:21:35;;;;;;;6.70;3.20;;;;;;;-145.69;39.15;51889.91;5030982;28;20235;-82
2023/10/03 08:24:09;;;;;;;9.27;3.63;;;;;;;-145.69;37.71;51897.84;5031466;28;20197;-82
2023/10/03 08:26:38;;;;;;;10.85;3.40;;;;;;;-145.69;37.59;51883.97;5031216;28;20200;-82
2023/10/03 08:29:05;;;;;;;7.22;3.15;;;;;;;-145.69;36.99;51880.00;5031555;28;20200;-82
2023/10/03 08:31:32;;;;;;;7.93;3.30;;;;;;;-145.69;37.55;51872.09;5031643;28;20195;-82
2023/10/03 08:33:58;;;;;;;9.88;3.63;;;;;;;-145.69;37.24;51870.13;5030993;28;20587;-80
2023/10/03 08:36:28;;;;;;;7.93;2.97;;;;;;;-145.69;37.00;51846.34;5029471;28;20232;-81
2023/10/03 08:39:04;;;;;;;7.70;3.50;;;;;;;-145.69;37.99;51862.19;5030573;28;20227;-81
2023/10/03 08:41:37;;;;;;;10.23;3.50;;;;;;;-145.69;37.17;51866.16;5074589;27;20203;-81
2023/10/03 08:44:12;;;;;;;8.45;3.25;;;;;;;-145.69;37.20;51862.19;5029854;28;20222;-81
2023/10/03 08:46:45;;;;;;;7.03;3.50;;;;;;;-145.69;36.91;51834.47;5030898;28;20204;-81
2023/10/03 08:49:17;;;;;;;7.95;3.47;;;;;;;-145.69;36.98;51850.31;5037056;27;20213;-81
2023/10/03 08:51:45;;;;;;;7.55;3.53;;;;;;;-145.69;36.79;51846.34;5011088;28;20213;-82
2023/10/03 08:54:12;;;;;;;6.57;3.28;;;;;;;-145.69;36.77;51850.31;5035865;28;20544;-81
2023/10/03 08:56:41;;;;;;;7.70;3.35;;;;;;;-145.69;36.50;51850.31;5030089;28;20196;-82
2023/10/03 08:59:09;;;;;;;9.13;3.67;;;;;;;-145.69;36.99;51830.50;5030178;28;20227;-81
2023/10/03 09:01:45;;;;;;;10.30;3.15;;;;;;;-145.69;36.32;51870.13;5031748;28;20224;-81
2023/10/03 09:04:15;;;;;;;8.23;4.00;;;;;;;-145.69;37.09;51838.44;5031339;28;20280;-81
2023/10/03 09:06:43;;;;;;;13.30;3.35;;;;;;;-145.69;36.11;51858.22;5030272;28;20204;-80
2023/10/03 09:09:13;;;;;;;8.85;3.40;;;;;;;-145.69;36.36;51874.06;5030897;28;20200;-81
2023/10/03 09:11:42;;;;;;;7.50;3.22;;;;;;;-145.69;36.09;51858.22;5031739;27;20234;-80
2023/10/03 09:14:14;;;;;;;7.93;3.33;;;;;;;-145.69;36.52;51858.22;5080033;27;20564;-81
2023/10/03 09:16:41;;;;;;;8.63;3.53;;;;;;;-145.69;36.11;51874.06;5134548;27;20200;-81
2023/10/03 09:19:09;;;;;;;6.50;2.72;;;;;;;-145.69;35.80;51846.34;5134673;27;20680;-80
2023/10/03 09:21:36;;;;;;;8.52;3.55;;;;;;;-145.69;35.83;51820.59;5133852;27;20193;-80
2023/10/03 09:24:15;;;;;;;11.38;3.40;;;;;;;-145.69;36.02;51838.44;5134583;27;20216;-80
2023/10/03 09:26:46;;;;;;;10.65;4.00;;;;;;;-145.69;35.56;51868.13;5134293;27;20712;-81
2023/10/03 09:29:18;;;;;;;5.90;3.25;;;;;;;-145.69;36.02;51822.59;5134348;27;20208;-80
2023/10/03 09:31:45;;;;;;;8.48;3.67;;;;;;;-145.69;36.46;51854.28;5134529;27;20232;-81
2023/10/03 09:34:14;;;;;;;11.52;3.88;;;;;;;-145.69;35.82;51832.50;5134374;27;20296;-81
2023/10/03 09:36:40;;;;;;;6.95;3.45;;;;;;;-145.69;36.38;51838.44;5056824;27;20235;-81
2023/10/03 09:39:08;;;;;;;7.75;3.70;;;;;;;-145.69;36.06;51828.53;5042058;27;20228;-81
2023/10/03 09:41:38;;;;;;;6.75;3.25;;;;;;;-145.69;35.97;51854.28;5030304;28;20263;-82
2023/10/03 09:44:07;;;;;;;8.63;3.67;;;;;;;-145.69;35.42;51822.59;5029797;28;20291;-81
2023/10/03 09:46:39;;;;;;;11.32;3.55;;;;;;;-145.69;35.13;51836.44;5029658;28;20590;-82
2023/10/03 09:49:09;;;;;;;8.93;3.30;;;;;;;-145.69;35.32;51826.56;5030109;28;20203;-81
2023/10/03 09:51:51;;;;;;;8.98;3.53;;;;;;;-145.69;34.85;51850.31;5030465;28;20304;-83
2023/10/03 09:54:24;;;;;;;10.07;3.75;;;;;;;-145.69;35.24;51838.44;5029953;28;20703;-81
2023/10/03 09:56:52;;;;;;;10.27;4.07;;;;;;;-145.69;35.25;51834.47;5029154;28;20682;-81
2023/10/03 09:59:19;;;;;;;12.73;4.57;;;;;;;-145.69;34.67;51794.88;5029371;28;20704;-81
2023/10/03 10:01:47;;;;;;;10.57;3.58;;;;;;;-145.69;36.24;51822.59;5029733;28;20200;-81
2023/10/03 10:04:19;;;;;;;10.65;3.67;;;;;;;-145.69;35.11;51834.47;5029974;28;20290;-81
2023/10/03 10:06:50;;;;;;;8.02;3.65;;;;;;;-145.69;34.99;51790.91;5029561;28;20200;-82
2023/10/03 10:09:27;;;;;;;8.25;3.85;;;;;;;-145.69;35.21;51814.66;5032445;28;20651;-82
2023/10/03 10:12:12;;;;;;;7.85;3.90;;;;;;;-145.69;35.16;51800.81;5030240;28;20238;-81
2023/10/03 10:15:14;;;;;;;7.88;4.00;;;;;;;-145.69;34.76;51783.00;5030339;28;20206;-81
2023/10/03 10:17:45;;;;;;;8.00;3.65;;;;;;;-145.69;35.28;51771.09;5039897;28;20239;-81
2023/10/03 10:20:13;;;;;;;7.63;3.80;;;;;;;-145.69;34.55;51779.03;5029868;28;20279;-82
2023/10/03 10:23:12;;;;;;;7.93;4.03;;;;;;;-145.69;35.39;51792.88;5030153;28;20280;-81
2023/10/03 10:25:50;;;;;;;8.27;3.58;;;;;;;-145.69;35.36;51794.88;5029113;28;20253;-81
2023/10/03 10:28:20;;;;;;;8.77;3.60;;;;;;;-145.69;34.90;51796.84;5029145;28;20567;-81
2023/10/03 10:31:17;;;;;;;15.48;4.60;;;;;;;-145.69;34.57;51786.94;5028866;28;20201;-81
2023/10/03 10:33:46;;;;;;;8.20;4.13;;;;;;;-145.69;34.87;51806.75;5030148;28;20196;-81
2023/10/03 10:36:13;;;;;;;9.90;4.20;;;;;;;-145.69;35.05;51794.88;5029235;28;20224;-82
2023/10/03 10:39:03;;;;;;;9.38;4.70;;;;;;;-145.69;35.53;51759.22;5029092;28;20221;-82
2023/10/03 10:41:30;;;;;;;7.68;3.80;;;;;;;-145.69;35.21;51767.16;5031848;28;20200;-81
2023/10/03 10:44:10;;;;;;;12.80;4.28;;;;;;;-145.69;34.67;51784.97;5029742;28;20291;-82
2023/10/03 10:46:39;;;;;;;9.25;4.00;;;;;;;-145.69;34.65;51741.41;5029073;28;20642;-81
2023/10/03 10:49:44;;;;;;;10.05;3.63;;;;;;;-145.69;33.98;51743.38;5029335;28;20199;-82
2023/10/03 10:52:13;;;;;;;11.93;3.85;;;;;;;-145.69;34.78;51781.00;5020829;28;20204;-82
2023/10/03 10:54:41;;;;;;;9.32;3.97;;;;;;;-145.69;34.88;51765.16;5029714;28;20202;-82
2023/10/03 10:57:10;;;;;;;8.40;3.75;;;;;;;-145.69;35.31;51741.41;5031898;28;20226;-82
2023/10/03 10:59:39;;;;;;;13.23;4.20;;;;;;;-145.69;34.05;51747.34;5043677;27;20300;-82
2023/10/03 11:02:16;;;;;;;11.05;4.10;;;;;;;-145.69;33.41;51719.63;5032571;28;20208;-82
2023/10/03 11:04:43;;;;;;;8.40;3.40;;;;;;;-145.69;33.31;51703.78;5032216;28;20301;-82
2023/10/03 11:07:10;;;;;;;8.57;3.92;;;;;;;-145.69;32.84;51715.66;5032722;28;20204;-82
2023/10/03 11:09:38;;;;;;;8.95;3.90;;;;;;;-145.69;33.23;51719.63;5032582;28;20200;-83
2023/10/03 11:12:06;;;;;;;9.05;3.83;;;;;;;-145.69;33.82;51729.53;5032786;28;20231;-83
2023/10/03 11:14:34;;;;;;;7.32;3.92;;;;;;;-145.69;33.55;51737.44;5040055;27;20473;-83
2023/10/03 11:17:02;;;;;;;6.45;3.30;;;;;;;-145.69;32.76;51695.88;5034200;28;20239;-83
2023/10/03 11:19:31;;;;;;;6.90;3.58;;;;;;;-145.69;33.36;51731.50;5032710;28;20307;-82